sensor_id;sensor_type;location;lat;lon;timestamp;P1;durP1;ratioP1;P2;durP2;ratioP2
16153;SDS011;8182;55.648;13.208;2023-12-04T00:01:34;8.53;;;6.77;;
16153;SDS011;8182;55.648;13.208;2023-12-04T00:04:02;8.80;;;7.00;;
16153;SDS011;8182;55.648;13.208;2023-12-04T00:06:29;8.77;;;7.33;;
16153;SDS011;8182;55.648;13.208;2023-12-04T00:08:56;9.30;;;7.10;;
16153;SDS011;8182;55.648;13.208;2023-12-04T00:11:22;8.90;;;7.03;;
16153;SDS011;8182;55.648;13.208;2023-12-04T00:13:49;9.77;;;6.90;;
16153;SDS011;8182;55.648;13.208;2023-12-04T00:16:16;8.90;;;6.90;;
16153;SDS011;8182;55.648;13.208;2023-12-04T00:18:42;9.73;;;6.53;;
16153;SDS011;8182;55.648;13.208;2023-12-04T00:21:11;8.33;;;6.87;;
16153;SDS011;8182;55.648;13.208;2023-12-04T00:23:39;8.73;;;6.80;;
16153;SDS011;8182;55.648;13.208;2023-12-04T00:26:06;9.43;;;7.23;;
16153;SDS011;8182;55.648;13.208;2023-12-04T00:28:35;8.83;;;6.70;;
16153;SDS011;8182;55.648;13.208;2023-12-04T00:31:02;9.00;;;7.50;;
16153;SDS011;8182;55.648;13.208;2023-12-04T00:33:29;10.93;;;6.37;;
16153;SDS011;8182;55.648;13.208;2023-12-04T00:35:56;9.87;;;7.17;;
16153;SDS011;8182;55.648;13.208;2023-12-04T00:38:25;8.93;;;6.97;;
16153;SDS011;8182;55.648;13.208;2023-12-04T00:40:52;9.40;;;7.20;;
16153;SDS011;8182;55.648;13.208;2023-12-04T00:43:18;9.80;;;6.80;;
16153;SDS011;8182;55.648;13.208;2023-12-04T00:45:45;9.03;;;6.60;;
16153;SDS011;8182;55.648;13.208;2023-12-04T00:48:12;7.83;;;6.43;;
16153;SDS011;8182;55.648;13.208;2023-12-04T00:50:39;7.50;;;6.17;;
16153;SDS011;8182;55.648;13.208;2023-12-04T00:53:06;8.37;;;6.10;;
16153;SDS011;8182;55.648;13.208;2023-12-04T00:55:34;6.97;;;6.17;;
16153;SDS011;8182;55.648;13.208;2023-12-04T00:58:01;8.07;;;6.23;;
16153;SDS011;8182;55.648;13.208;2023-12-04T01:00:27;8.60;;;6.50;;
16153;SDS011;8182;55.648;13.208;2023-12-04T01:02:54;7.37;;;5.87;;
16153;SDS011;8182;55.648;13.208;2023-12-04T01:05:21;8.13;;;6.30;;
16153;SDS011;8182;55.648;13.208;2023-12-04T01:07:48;8.47;;;6.63;;
16153;SDS011;8182;55.648;13.208;2023-12-04T01:10:15;7.87;;;6.00;;
16153;SDS011;8182;55.648;13.208;2023-12-04T01:12:43;8.27;;;6.60;;
16153;SDS011;8182;55.648;13.208;2023-12-04T01:15:10;8.53;;;6.33;;
16153;SDS011;8182;55.648;13.208;2023-12-04T01:17:37;7.43;;;5.70;;
16153;SDS011;8182;55.648;13.208;2023-12-04T01:20:04;8.30;;;6.60;;
16153;SDS011;8182;55.648;13.208;2023-12-04T01:22:31;8.30;;;6.63;;
16153;SDS011;8182;55.648;13.208;2023-12-04T01:24:58;9.63;;;6.60;;
16153;SDS011;8182;55.648;13.208;2023-12-04T01:27:25;8.20;;;6.57;;
16153;SDS011;8182;55.648;13.208;2023-12-04T01:29:56;7.70;;;5.97;;
16153;SDS011;8182;55.648;13.208;2023-12-04T01:32:23;7.87;;;5.83;;
16153;SDS011;8182;55.648;13.208;2023-12-04T01:34:50;7.70;;;6.30;;
16153;SDS011;8182;55.648;13.208;2023-12-04T01:37:17;7.50;;;6.03;;
16153;SDS011;8182;55.648;13.208;2023-12-04T01:39:44;7.83;;;5.63;;
16153;SDS011;8182;55.648;13.208;2023-12-04T01:42:11;6.50;;;5.50;;
16153;SDS011;8182;55.648;13.208;2023-12-04T01:44:37;10.07;;;6.00;;
16153;SDS011;8182;55.648;13.208;2023-12-04T01:47:05;7.83;;;5.83;;
16153;SDS011;8182;55.648;13.208;2023-12-04T01:49:33;7.10;;;6.17;;
16153;SDS011;8182;55.648;13.208;2023-12-04T01:52:00;8.20;;;6.03;;
16153;SDS011;8182;55.648;13.208;2023-12-04T01:54:27;8.37;;;6.47;;
16153;SDS011;8182;55.648;13.208;2023-12-04T01:56:54;8.40;;;6.33;;
16153;SDS011;8182;55.648;13.208;2023-12-04T01:59:21;8.90;;;6.60;;
16153;SDS011;8182;55.648;13.208;2023-12-04T02:01:48;8.53;;;6.37;;
16153;SDS011;8182;55.648;13.208;2023-12-04T02:04:17;7.20;;;5.73;;
16153;SDS011;8182;55.648;13.208;2023-12-04T02:06:44;9.50;;;6.90;;
16153;SDS011;8182;55.648;13.208;2023-12-04T02:09:11;7.40;;;6.20;;
16153;SDS011;8182;55.648;13.208;2023-12-04T02:11:41;8.00;;;6.37;;
16153;SDS011;8182;55.648;13.208;2023-12-04T02:14:08;8.30;;;6.30;;
16153;SDS011;8182;55.648;13.208;2023-12-04T02:16:36;7.87;;;6.07;;
16153;SDS011;8182;55.648;13.208;2023-12-04T02:19:07;8.40;;;6.10;;
16153;SDS011;8182;55.648;13.208;2023-12-04T02:21:35;8.50;;;6.40;;
16153;SDS011;8182;55.648;13.208;2023-12-04T02:24:04;7.47;;;5.93;;
16153;SDS011;8182;55.648;13.208;2023-12-04T02:26:31;8.33;;;6.23;;
16153;SDS011;8182;55.648;13.208;2023-12-04T02:29:04;7.27;;;5.77;;
16153;SDS011;8182;55.648;13.208;2023-12-04T02:31:34;8.00;;;6.10;;
16153;SDS011;8182;55.648;13.208;2023-12-04T02:34:02;8.27;;;6.47;;
16153;SDS011;8182;55.648;13.208;2023-12-04T02:36:32;8.83;;;6.57;;
16153;SDS011;8182;55.648;13.208;2023-12-04T02:39:01;9.50;;;6.40;;
16153;SDS011;8182;55.648;13.208;2023-12-04T02:41:30;7.97;;;6.60;;
16153;SDS011;8182;55.648;13.208;2023-12-04T02:43:57;8.70;;;6.67;;
16153;SDS011;8182;55.648;13.208;2023-12-04T02:46:24;8.53;;;6.10;;
16153;SDS011;8182;55.648;13.208;2023-12-04T02:48:50;9.17;;;6.73;;
16153;SDS011;8182;55.648;13.208;2023-12-04T02:51:17;10.47;;;6.93;;
16153;SDS011;8182;55.648;13.208;2023-12-04T02:53:44;8.27;;;6.53;;
16153;SDS011;8182;55.648;13.208;2023-12-04T02:56:11;9.00;;;6.20;;
16153;SDS011;8182;55.648;13.208;2023-12-04T02:58:38;10.00;;;6.70;;
16153;SDS011;8182;55.648;13.208;2023-12-04T03:01:05;7.77;;;6.17;;
16153;SDS011;8182;55.648;13.208;2023-12-04T03:03:32;7.20;;;5.90;;
16153;SDS011;8182;55.648;13.208;2023-12-04T03:05:58;8.33;;;6.10;;
16153;SDS011;8182;55.648;13.208;2023-12-04T03:08:25;7.37;;;5.60;;
16153;SDS011;8182;55.648;13.208;2023-12-04T03:10:52;7.87;;;5.90;;
16153;SDS011;8182;55.648;13.208;2023-12-04T03:13:19;7.47;;;6.00;;
16153;SDS011;8182;55.648;13.208;2023-12-04T03:15:47;6.93;;;5.80;;
16153;SDS011;8182;55.648;13.208;2023-12-04T03:18:14;7.90;;;5.77;;
16153;SDS011;8182;55.648;13.208;2023-12-04T03:20:41;7.43;;;5.73;;
16153;SDS011;8182;55.648;13.208;2023-12-04T03:23:08;7.80;;;5.90;;
16153;SDS011;8182;55.648;13.208;2023-12-04T03:25:35;6.63;;;5.63;;
16153;SDS011;8182;55.648;13.208;2023-12-04T03:28:01;8.90;;;5.53;;
16153;SDS011;8182;55.648;13.208;2023-12-04T03:30:28;7.63;;;5.97;;
16153;SDS011;8182;55.648;13.208;2023-12-04T03:32:56;7.13;;;5.70;;
16153;SDS011;8182;55.648;13.208;2023-12-04T03:35:23;9.10;;;5.90;;
16153;SDS011;8182;55.648;13.208;2023-12-04T03:37:50;7.93;;;6.17;;
16153;SDS011;8182;55.648;13.208;2023-12-04T03:40:17;8.70;;;6.43;;
16153;SDS011;8182;55.648;13.208;2023-12-04T03:42:44;8.03;;;6.27;;
16153;SDS011;8182;55.648;13.208;2023-12-04T03:45:11;8.87;;;6.10;;
16153;SDS011;8182;55.648;13.208;2023-12-04T03:47:38;8.30;;;6.33;;
16153;SDS011;8182;55.648;13.208;2023-12-04T03:50:06;8.17;;;5.90;;
16153;SDS011;8182;55.648;13.208;2023-12-04T03:52:33;9.40;;;6.80;;
16153;SDS011;8182;55.648;13.208;2023-12-04T03:55:00;9.70;;;6.93;;
16153;SDS011;8182;55.648;13.208;2023-12-04T03:57:28;8.77;;;6.70;;
16153;SDS011;8182;55.648;13.208;2023-12-04T03:59:55;10.23;;;7.30;;
16153;SDS011;8182;55.648;13.208;2023-12-04T04:02:21;9.10;;;7.20;;
16153;SDS011;8182;55.648;13.208;2023-12-04T04:04:48;10.40;;;7.30;;
16153;SDS011;8182;55.648;13.208;2023-12-04T04:07:16;11.00;;;7.87;;
16153;SDS011;8182;55.648;13.208;2023-12-04T04:09:43;11.50;;;7.80;;
16153;SDS011;8182;55.648;13.208;2023-12-04T04:12:10;10.60;;;7.83;;
16153;SDS011;8182;55.648;13.208;2023-12-04T04:14:36;12.07;;;8.17;;
16153;SDS011;8182;55.648;13.208;2023-12-04T04:17:03;12.03;;;7.87;;
16153;SDS011;8182;55.648;13.208;2023-12-04T04:19:31;12.53;;;8.23;;
16153;SDS011;8182;55.648;13.208;2023-12-04T04:21:57;13.03;;;8.67;;
16153;SDS011;8182;55.648;13.208;2023-12-04T04:24:26;12.40;;;8.73;;
16153;SDS011;8182;55.648;13.208;2023-12-04T04:26:52;12.73;;;8.80;;
16153;SDS011;8182;55.648;13.208;2023-12-04T04:29:19;13.00;;;8.87;;
16153;SDS011;8182;55.648;13.208;2023-12-04T04:31:46;12.53;;;8.63;;
16153;SDS011;8182;55.648;13.208;2023-12-04T04:34:13;12.90;;;8.90;;
16153;SDS011;8182;55.648;13.208;2023-12-04T04:36:40;16.63;;;9.97;;
16153;SDS011;8182;55.648;13.208;2023-12-04T04:39:06;13.80;;;9.10;;
16153;SDS011;8182;55.648;13.208;2023-12-04T04:41:38;15.20;;;9.70;;
16153;SDS011;8182;55.648;13.208;2023-12-04T04:44:05;13.63;;;9.73;;
16153;SDS011;8182;55.648;13.208;2023-12-04T04:46:32;12.23;;;8.83;;
16153;SDS011;8182;55.648;13.208;2023-12-04T04:48:59;14.40;;;9.87;;
16153;SDS011;8182;55.648;13.208;2023-12-04T04:51:27;13.07;;;9.20;;
16153;SDS011;8182;55.648;13.208;2023-12-04T04:53:54;14.17;;;9.83;;
16153;SDS011;8182;55.648;13.208;2023-12-04T04:56:21;14.37;;;9.20;;
16153;SDS011;8182;55.648;13.208;2023-12-04T04:58:52;12.93;;;9.17;;
16153;SDS011;8182;55.648;13.208;2023-12-04T05:01:19;13.33;;;9.23;;
16153;SDS011;8182;55.648;13.208;2023-12-04T05:03:46;14.80;;;9.73;;
16153;SDS011;8182;55.648;13.208;2023-12-04T05:06:13;14.73;;;9.77;;
16153;SDS011;8182;55.648;13.208;2023-12-04T05:08:40;16.20;;;10.50;;
16153;SDS011;8182;55.648;13.208;2023-12-04T05:11:07;14.17;;;9.53;;
16153;SDS011;8182;55.648;13.208;2023-12-04T05:13:33;15.40;;;10.30;;
16153;SDS011;8182;55.648;13.208;2023-12-04T05:16:02;17.23;;;10.90;;
16153;SDS011;8182;55.648;13.208;2023-12-04T05:18:29;18.43;;;11.63;;
16153;SDS011;8182;55.648;13.208;2023-12-04T05:20:56;15.60;;;10.67;;
16153;SDS011;8182;55.648;13.208;2023-12-04T05:23:22;13.87;;;10.20;;
16153;SDS011;8182;55.648;13.208;2023-12-04T05:25:49;17.77;;;10.53;;
16153;SDS011;8182;55.648;13.208;2023-12-04T05:28:16;13.93;;;10.10;;
16153;SDS011;8182;55.648;13.208;2023-12-04T05:30:43;16.33;;;10.67;;
16153;SDS011;8182;55.648;13.208;2023-12-04T05:33:11;17.97;;;11.13;;
16153;SDS011;8182;55.648;13.208;2023-12-04T05:35:38;14.40;;;10.30;;
16153;SDS011;8182;55.648;13.208;2023-12-04T05:38:05;16.70;;;10.57;;
16153;SDS011;8182;55.648;13.208;2023-12-04T05:40:33;16.07;;;10.60;;
16153;SDS011;8182;55.648;13.208;2023-12-04T05:43:00;15.53;;;10.40;;
16153;SDS011;8182;55.648;13.208;2023-12-04T05:45:27;17.03;;;11.10;;
16153;SDS011;8182;55.648;13.208;2023-12-04T05:47:54;19.30;;;11.40;;
16153;SDS011;8182;55.648;13.208;2023-12-04T05:50:22;18.70;;;10.97;;
16153;SDS011;8182;55.648;13.208;2023-12-04T05:52:49;19.20;;;11.47;;
16153;SDS011;8182;55.648;13.208;2023-12-04T05:55:16;22.23;;;13.60;;
16153;SDS011;8182;55.648;13.208;2023-12-04T05:57:43;24.47;;;14.53;;
16153;SDS011;8182;55.648;13.208;2023-12-04T06:00:10;30.77;;;17.53;;
16153;SDS011;8182;55.648;13.208;2023-12-04T06:02:38;25.30;;;15.43;;
16153;SDS011;8182;55.648;13.208;2023-12-04T06:05:05;26.23;;;13.90;;
16153;SDS011;8182;55.648;13.208;2023-12-04T06:07:34;23.00;;;13.63;;
16153;SDS011;8182;55.648;13.208;2023-12-04T06:10:01;23.13;;;14.10;;
16153;SDS011;8182;55.648;13.208;2023-12-04T06:12:29;23.27;;;13.93;;
16153;SDS011;8182;55.648;13.208;2023-12-04T06:14:56;25.60;;;14.67;;
16153;SDS011;8182;55.648;13.208;2023-12-04T06:17:23;25.90;;;14.83;;
16153;SDS011;8182;55.648;13.208;2023-12-04T06:19:50;24.57;;;13.57;;
16153;SDS011;8182;55.648;13.208;2023-12-04T06:22:17;24.17;;;14.47;;
16153;SDS011;8182;55.648;13.208;2023-12-04T06:24:48;27.00;;;14.77;;
16153;SDS011;8182;55.648;13.208;2023-12-04T06:27:16;26.13;;;15.03;;
16153;SDS011;8182;55.648;13.208;2023-12-04T06:29:45;28.03;;;14.63;;
16153;SDS011;8182;55.648;13.208;2023-12-04T06:32:12;28.17;;;15.57;;
16153;SDS011;8182;55.648;13.208;2023-12-04T06:34:40;27.80;;;15.13;;
16153;SDS011;8182;55.648;13.208;2023-12-04T06:37:09;26.80;;;15.43;;
16153;SDS011;8182;55.648;13.208;2023-12-04T06:39:37;25.07;;;15.03;;
16153;SDS011;8182;55.648;13.208;2023-12-04T06:42:07;22.83;;;14.03;;
16153;SDS011;8182;55.648;13.208;2023-12-04T06:44:35;25.63;;;14.70;;
16153;SDS011;8182;55.648;13.208;2023-12-04T06:47:03;24.63;;;14.40;;
16153;SDS011;8182;55.648;13.208;2023-12-04T06:49:33;25.27;;;14.23;;
16153;SDS011;8182;55.648;13.208;2023-12-04T06:52:00;25.73;;;15.67;;
16153;SDS011;8182;55.648;13.208;2023-12-04T06:54:27;27.00;;;14.63;;
16153;SDS011;8182;55.648;13.208;2023-12-04T06:56:54;23.10;;;14.60;;
16153;SDS011;8182;55.648;13.208;2023-12-04T06:59:26;22.47;;;14.40;;
16153;SDS011;8182;55.648;13.208;2023-12-04T07:01:52;25.03;;;14.50;;
16153;SDS011;8182;55.648;13.208;2023-12-04T07:04:19;24.93;;;14.07;;
16153;SDS011;8182;55.648;13.208;2023-12-04T07:06:47;22.83;;;14.63;;
16153;SDS011;8182;55.648;13.208;2023-12-04T07:09:14;24.77;;;14.30;;
16153;SDS011;8182;55.648;13.208;2023-12-04T07:11:41;23.20;;;14.40;;
16153;SDS011;8182;55.648;13.208;2023-12-04T07:14:09;31.00;;;17.67;;
16153;SDS011;8182;55.648;13.208;2023-12-04T07:16:40;34.87;;;20.37;;
16153;SDS011;8182;55.648;13.208;2023-12-04T07:19:08;44.37;;;26.40;;
16153;SDS011;8182;55.648;13.208;2023-12-04T07:21:35;39.97;;;25.33;;
16153;SDS011;8182;55.648;13.208;2023-12-04T07:24:02;44.77;;;25.97;;
16153;SDS011;8182;55.648;13.208;2023-12-04T07:26:30;42.60;;;24.87;;
16153;SDS011;8182;55.648;13.208;2023-12-04T07:28:57;40.80;;;24.40;;
16153;SDS011;8182;55.648;13.208;2023-12-04T07:31:24;29.50;;;18.87;;
16153;SDS011;8182;55.648;13.208;2023-12-04T07:33:53;29.27;;;17.73;;
16153;SDS011;8182;55.648;13.208;2023-12-04T07:36:20;25.53;;;16.07;;
16153;SDS011;8182;55.648;13.208;2023-12-04T07:38:47;23.73;;;15.03;;
16153;SDS011;8182;55.648;13.208;2023-12-04T07:41:14;25.20;;;14.93;;
16153;SDS011;8182;55.648;13.208;2023-12-04T07:43:41;22.27;;;13.60;;
16153;SDS011;8182;55.648;13.208;2023-12-04T07:46:09;22.83;;;13.40;;
16153;SDS011;8182;55.648;13.208;2023-12-04T07:48:36;23.43;;;13.27;;
16153;SDS011;8182;55.648;13.208;2023-12-04T07:51:06;23.33;;;14.00;;
16153;SDS011;8182;55.648;13.208;2023-12-04T07:53:34;22.63;;;13.97;;
16153;SDS011;8182;55.648;13.208;2023-12-04T07:56:00;23.20;;;13.40;;
16153;SDS011;8182;55.648;13.208;2023-12-04T07:58:29;21.87;;;13.37;;
16153;SDS011;8182;55.648;13.208;2023-12-04T08:00:56;23.00;;;14.30;;
16153;SDS011;8182;55.648;13.208;2023-12-04T08:03:22;24.13;;;14.20;;
16153;SDS011;8182;55.648;13.208;2023-12-04T08:05:49;25.17;;;15.00;;
16153;SDS011;8182;55.648;13.208;2023-12-04T08:08:19;22.33;;;13.50;;
16153;SDS011;8182;55.648;13.208;2023-12-04T08:10:46;23.60;;;14.80;;
16153;SDS011;8182;55.648;13.208;2023-12-04T08:13:13;24.53;;;15.50;;
16153;SDS011;8182;55.648;13.208;2023-12-04T08:15:40;21.50;;;13.37;;
16153;SDS011;8182;55.648;13.208;2023-12-04T08:18:07;21.77;;;13.23;;
16153;SDS011;8182;55.648;13.208;2023-12-04T08:20:34;19.67;;;12.47;;
16153;SDS011;8182;55.648;13.208;2023-12-04T08:23:00;21.60;;;13.17;;
16153;SDS011;8182;55.648;13.208;2023-12-04T08:25:29;23.17;;;14.13;;
16153;SDS011;8182;55.648;13.208;2023-12-04T08:27:57;21.27;;;13.80;;
16153;SDS011;8182;55.648;13.208;2023-12-04T08:30:24;20.97;;;13.30;;
16153;SDS011;8182;55.648;13.208;2023-12-04T08:32:52;22.20;;;13.47;;
16153;SDS011;8182;55.648;13.208;2023-12-04T08:35:19;22.80;;;13.60;;
16153;SDS011;8182;55.648;13.208;2023-12-04T08:37:47;21.37;;;13.20;;
16153;SDS011;8182;55.648;13.208;2023-12-04T08:40:13;19.33;;;12.57;;
16153;SDS011;8182;55.648;13.208;2023-12-04T08:42:42;20.97;;;13.07;;
16153;SDS011;8182;55.648;13.208;2023-12-04T08:45:09;21.63;;;12.53;;
16153;SDS011;8182;55.648;13.208;2023-12-04T08:47:36;22.37;;;13.30;;
16153;SDS011;8182;55.648;13.208;2023-12-04T08:50:04;19.07;;;11.97;;
16153;SDS011;8182;55.648;13.208;2023-12-04T08:52:31;19.30;;;12.33;;
16153;SDS011;8182;55.648;13.208;2023-12-04T08:54:59;21.23;;;12.77;;
16153;SDS011;8182;55.648;13.208;2023-12-04T08:57:26;18.80;;;12.17;;
16153;SDS011;8182;55.648;13.208;2023-12-04T08:59:55;19.50;;;12.27;;
16153;SDS011;8182;55.648;13.208;2023-12-04T09:02:21;19.60;;;12.13;;
16153;SDS011;8182;55.648;13.208;2023-12-04T09:04:48;20.37;;;12.40;;
16153;SDS011;8182;55.648;13.208;2023-12-04T09:07:15;19.50;;;11.63;;
16153;SDS011;8182;55.648;13.208;2023-12-04T09:09:42;18.77;;;11.47;;
16153;SDS011;8182;55.648;13.208;2023-12-04T09:12:11;19.27;;;11.70;;
16153;SDS011;8182;55.648;13.208;2023-12-04T09:14:38;19.70;;;12.33;;
16153;SDS011;8182;55.648;13.208;2023-12-04T09:17:06;21.83;;;12.13;;
16153;SDS011;8182;55.648;13.208;2023-12-04T09:19:33;16.97;;;10.57;;
16153;SDS011;8182;55.648;13.208;2023-12-04T09:22:00;20.27;;;13.23;;
16153;SDS011;8182;55.648;13.208;2023-12-04T09:24:26;18.87;;;11.80;;
16153;SDS011;8182;55.648;13.208;2023-12-04T09:26:53;21.53;;;12.77;;
16153;SDS011;8182;55.648;13.208;2023-12-04T09:29:21;17.70;;;12.20;;
16153;SDS011;8182;55.648;13.208;2023-12-04T09:31:49;16.57;;;11.20;;
16153;SDS011;8182;55.648;13.208;2023-12-04T09:34:18;19.37;;;11.10;;
16153;SDS011;8182;55.648;13.208;2023-12-04T09:36:45;19.00;;;12.40;;
16153;SDS011;8182;55.648;13.208;2023-12-04T09:39:13;20.67;;;12.70;;
16153;SDS011;8182;55.648;13.208;2023-12-04T09:41:40;20.03;;;11.60;;
16153;SDS011;8182;55.648;13.208;2023-12-04T09:44:09;22.03;;;12.47;;
16153;SDS011;8182;55.648;13.208;2023-12-04T09:46:36;18.53;;;12.40;;
16153;SDS011;8182;55.648;13.208;2023-12-04T09:49:04;21.10;;;13.50;;
16153;SDS011;8182;55.648;13.208;2023-12-04T09:51:32;19.03;;;13.27;;
16153;SDS011;8182;55.648;13.208;2023-12-04T09:54:00;20.90;;;13.73;;
16153;SDS011;8182;55.648;13.208;2023-12-04T09:56:28;20.93;;;12.93;;
16153;SDS011;8182;55.648;13.208;2023-12-04T09:58:57;21.63;;;13.70;;
16153;SDS011;8182;55.648;13.208;2023-12-04T10:01:24;21.47;;;13.77;;
16153;SDS011;8182;55.648;13.208;2023-12-04T10:03:52;22.63;;;13.13;;
16153;SDS011;8182;55.648;13.208;2023-12-04T10:06:21;20.67;;;13.17;;
16153;SDS011;8182;55.648;13.208;2023-12-04T10:08:50;20.33;;;13.33;;
16153;SDS011;8182;55.648;13.208;2023-12-04T10:11:17;21.03;;;14.10;;
16153;SDS011;8182;55.648;13.208;2023-12-04T10:13:44;21.90;;;14.20;;
16153;SDS011;8182;55.648;13.208;2023-12-04T10:16:11;21.17;;;13.60;;
16153;SDS011;8182;55.648;13.208;2023-12-04T10:18:38;23.27;;;12.83;;
16153;SDS011;8182;55.648;13.208;2023-12-04T10:21:05;25.57;;;13.97;;
16153;SDS011;8182;55.648;13.208;2023-12-04T10:23:36;22.03;;;13.83;;
16153;SDS011;8182;55.648;13.208;2023-12-04T10:26:06;22.90;;;14.67;;
16153;SDS011;8182;55.648;13.208;2023-12-04T10:28:33;22.43;;;14.17;;
16153;SDS011;8182;55.648;13.208;2023-12-04T10:31:00;23.17;;;13.80;;
16153;SDS011;8182;55.648;13.208;2023-12-04T10:33:28;23.83;;;15.00;;
16153;SDS011;8182;55.648;13.208;2023-12-04T10:35:55;21.83;;;13.70;;
16153;SDS011;8182;55.648;13.208;2023-12-04T10:38:22;25.03;;;13.90;;
16153;SDS011;8182;55.648;13.208;2023-12-04T10:40:52;21.37;;;14.27;;
16153;SDS011;8182;55.648;13.208;2023-12-04T10:43:21;27.20;;;14.60;;
16153;SDS011;8182;55.648;13.208;2023-12-04T10:45:49;22.20;;;13.57;;
16153;SDS011;8182;55.648;13.208;2023-12-04T10:48:16;21.00;;;14.20;;
16153;SDS011;8182;55.648;13.208;2023-12-04T10:50:45;22.00;;;14.73;;
16153;SDS011;8182;55.648;13.208;2023-12-04T10:53:13;20.80;;;13.43;;
16153;SDS011;8182;55.648;13.208;2023-12-04T10:55:41;21.37;;;13.60;;
16153;SDS011;8182;55.648;13.208;2023-12-04T10:58:10;21.20;;;14.00;;
16153;SDS011;8182;55.648;13.208;2023-12-04T11:00:42;19.57;;;11.80;;
16153;SDS011;8182;55.648;13.208;2023-12-04T11:03:12;19.10;;;12.97;;
16153;SDS011;8182;55.648;13.208;2023-12-04T11:05:43;20.63;;;12.10;;
16153;SDS011;8182;55.648;13.208;2023-12-04T11:08:12;16.73;;;10.60;;
16153;SDS011;8182;55.648;13.208;2023-12-04T11:10:44;19.97;;;11.57;;
16153;SDS011;8182;55.648;13.208;2023-12-04T11:13:15;9.23;;;6.13;;
16153;SDS011;8182;55.648;13.208;2023-12-04T11:15:47;18.97;;;12.27;;
16153;SDS011;8182;55.648;13.208;2023-12-04T11:18:16;17.93;;;12.43;;
16153;SDS011;8182;55.648;13.208;2023-12-04T11:20:48;20.33;;;13.03;;
16153;SDS011;8182;55.648;13.208;2023-12-04T11:23:21;22.80;;;13.23;;
16153;SDS011;8182;55.648;13.208;2023-12-04T11:25:48;19.27;;;14.00;;
16153;SDS011;8182;55.648;13.208;2023-12-04T11:28:15;20.30;;;13.60;;
16153;SDS011;8182;55.648;13.208;2023-12-04T11:30:42;21.50;;;12.60;;
16153;SDS011;8182;55.648;13.208;2023-12-04T11:33:12;20.97;;;12.90;;
16153;SDS011;8182;55.648;13.208;2023-12-04T11:35:39;21.30;;;13.80;;
16153;SDS011;8182;55.648;13.208;2023-12-04T11:38:05;19.60;;;12.03;;
16153;SDS011;8182;55.648;13.208;2023-12-04T11:40:34;23.27;;;13.87;;
16153;SDS011;8182;55.648;13.208;2023-12-04T11:43:04;24.00;;;14.30;;
16153;SDS011;8182;55.648;13.208;2023-12-04T11:45:47;27.20;;;13.57;;
16153;SDS011;8182;55.648;13.208;2023-12-04T11:48:15;20.03;;;13.37;;
16153;SDS011;8182;55.648;13.208;2023-12-04T11:50:42;19.77;;;13.57;;
16153;SDS011;8182;55.648;13.208;2023-12-04T11:53:10;20.60;;;12.90;;
16153;SDS011;8182;55.648;13.208;2023-12-04T11:55:39;14.57;;;9.73;;
16153;SDS011;8182;55.648;13.208;2023-12-04T11:58:08;19.30;;;10.70;;
16153;SDS011;8182;55.648;13.208;2023-12-04T12:00:36;17.47;;;11.70;;
16153;SDS011;8182;55.648;13.208;2023-12-04T12:03:04;15.97;;;10.50;;
16153;SDS011;8182;55.648;13.208;2023-12-04T12:05:36;14.33;;;9.90;;
16153;SDS011;8182;55.648;13.208;2023-12-04T12:08:05;14.70;;;9.77;;
16153;SDS011;8182;55.648;13.208;2023-12-04T12:10:32;16.37;;;9.40;;
16153;SDS011;8182;55.648;13.208;2023-12-04T12:13:00;14.57;;;9.20;;
16153;SDS011;8182;55.648;13.208;2023-12-04T12:15:27;13.33;;;9.53;;
16153;SDS011;8182;55.648;13.208;2023-12-04T12:17:54;15.27;;;9.67;;
16153;SDS011;8182;55.648;13.208;2023-12-04T12:20:21;9.67;;;6.70;;
16153;SDS011;8182;55.648;13.208;2023-12-04T12:22:49;12.17;;;8.47;;
16153;SDS011;8182;55.648;13.208;2023-12-04T12:25:17;16.63;;;9.30;;
16153;SDS011;8182;55.648;13.208;2023-12-04T12:27:44;12.33;;;8.57;;
16153;SDS011;8182;55.648;13.208;2023-12-04T12:30:12;9.43;;;6.13;;
16153;SDS011;8182;55.648;13.208;2023-12-04T12:32:40;14.10;;;9.13;;
16153;SDS011;8182;55.648;13.208;2023-12-04T12:35:07;12.60;;;8.77;;
16153;SDS011;8182;55.648;13.208;2023-12-04T12:37:34;10.53;;;7.77;;
16153;SDS011;8182;55.648;13.208;2023-12-04T12:40:03;12.73;;;8.83;;
16153;SDS011;8182;55.648;13.208;2023-12-04T12:42:34;9.47;;;6.07;;
16153;SDS011;8182;55.648;13.208;2023-12-04T12:45:02;13.30;;;9.20;;
16153;SDS011;8182;55.648;13.208;2023-12-04T12:47:30;13.00;;;8.57;;
16153;SDS011;8182;55.648;13.208;2023-12-04T12:49:57;12.00;;;8.07;;
16153;SDS011;8182;55.648;13.208;2023-12-04T12:52:23;10.53;;;7.70;;
16153;SDS011;8182;55.648;13.208;2023-12-04T12:54:52;13.17;;;9.07;;
16153;SDS011;8182;55.648;13.208;2023-12-04T12:57:20;12.77;;;8.87;;
16153;SDS011;8182;55.648;13.208;2023-12-04T12:59:47;11.70;;;7.73;;
16153;SDS011;8182;55.648;13.208;2023-12-04T13:02:14;14.00;;;8.80;;
16153;SDS011;8182;55.648;13.208;2023-12-04T13:04:42;8.13;;;5.63;;
16153;SDS011;8182;55.648;13.208;2023-12-04T13:07:10;12.23;;;8.93;;
16153;SDS011;8182;55.648;13.208;2023-12-04T13:09:38;16.37;;;10.03;;
16153;SDS011;8182;55.648;13.208;2023-12-04T13:12:05;11.13;;;8.03;;
16153;SDS011;8182;55.648;13.208;2023-12-04T13:14:34;12.17;;;8.23;;
16153;SDS011;8182;55.648;13.208;2023-12-04T13:17:01;8.60;;;6.30;;
16153;SDS011;8182;55.648;13.208;2023-12-04T13:19:28;13.13;;;8.97;;
16153;SDS011;8182;55.648;13.208;2023-12-04T13:21:56;15.70;;;9.87;;
16153;SDS011;8182;55.648;13.208;2023-12-04T13:24:25;18.07;;;9.53;;
16153;SDS011;8182;55.648;13.208;2023-12-04T13:26:52;14.13;;;10.33;;
16153;SDS011;8182;55.648;13.208;2023-12-04T13:29:19;13.60;;;9.80;;
16153;SDS011;8182;55.648;13.208;2023-12-04T13:31:48;15.63;;;10.77;;
16153;SDS011;8182;55.648;13.208;2023-12-04T13:34:16;13.90;;;9.53;;
16153;SDS011;8182;55.648;13.208;2023-12-04T13:36:42;14.33;;;9.90;;
16153;SDS011;8182;55.648;13.208;2023-12-04T13:39:09;13.93;;;10.07;;
16153;SDS011;8182;55.648;13.208;2023-12-04T13:41:42;23.30;;;13.27;;
16153;SDS011;8182;55.648;13.208;2023-12-04T13:44:26;17.57;;;12.03;;
16153;SDS011;8182;55.648;13.208;2023-12-04T13:46:56;19.40;;;11.57;;
16153;SDS011;8182;55.648;13.208;2023-12-04T13:49:23;32.93;;;18.97;;
16153;SDS011;8182;55.648;13.208;2023-12-04T13:51:49;14.77;;;9.23;;
16153;SDS011;8182;55.648;13.208;2023-12-04T13:54:18;14.03;;;8.83;;
16153;SDS011;8182;55.648;13.208;2023-12-04T13:56:47;14.73;;;9.43;;
16153;SDS011;8182;55.648;13.208;2023-12-04T13:59:21;9.87;;;6.20;;
16153;SDS011;8182;55.648;13.208;2023-12-04T14:01:49;10.57;;;6.70;;
16153;SDS011;8182;55.648;13.208;2023-12-04T14:04:18;12.70;;;9.73;;
16153;SDS011;8182;55.648;13.208;2023-12-04T14:06:45;13.90;;;9.93;;
16153;SDS011;8182;55.648;13.208;2023-12-04T14:09:11;14.43;;;9.80;;
16153;SDS011;8182;55.648;13.208;2023-12-04T14:11:41;13.97;;;9.60;;
16153;SDS011;8182;55.648;13.208;2023-12-04T14:14:09;16.47;;;10.27;;
16153;SDS011;8182;55.648;13.208;2023-12-04T14:16:37;16.43;;;11.13;;
16153;SDS011;8182;55.648;13.208;2023-12-04T14:19:04;16.67;;;10.63;;
16153;SDS011;8182;55.648;13.208;2023-12-04T14:21:33;14.17;;;9.03;;
16153;SDS011;8182;55.648;13.208;2023-12-04T14:24:00;14.27;;;10.27;;
16153;SDS011;8182;55.648;13.208;2023-12-04T14:26:27;13.97;;;9.43;;
16153;SDS011;8182;55.648;13.208;2023-12-04T14:28:53;17.50;;;10.90;;
16153;SDS011;8182;55.648;13.208;2023-12-04T14:31:21;13.17;;;9.40;;
16153;SDS011;8182;55.648;13.208;2023-12-04T14:33:48;14.77;;;8.80;;